sensor_id;sensor_type;location;lat;lon;timestamp;P1;P2;P0
46681;PMS5003;34101;53.430;-2.224;2023-04-03T00:01:19;6;6;
46681;PMS5003;34101;53.430;-2.224;2023-04-03T00:03:48;4;4;
46681;PMS5003;34101;53.430;-2.224;2023-04-03T00:06:15;5;5;
46681;PMS5003;34101;53.430;-2.224;2023-04-03T00:08:42;4;4;
46681;PMS5003;34101;53.430;-2.224;2023-04-03T00:11:10;5;5;
46681;PMS5003;34101;53.430;-2.224;2023-04-03T00:13:39;7;4;
46681;PMS5003;34101;53.430;-2.224;2023-04-03T00:16:07;6;6;
46681;PMS5003;34101;53.430;-2.224;2023-04-03T00:18:37;5;5;
46681;PMS5003;34101;53.430;-2.224;2023-04-03T00:21:06;5;4;
46681;PMS5003;34101;53.430;-2.224;2023-04-03T00:23:34;3;3;
46681;PMS5003;34101;53.430;-2.224;2023-04-03T00:26:02;4;3;
46681;PMS5003;34101;53.430;-2.224;2023-04-03T00:28:31;7;7;
46681;PMS5003;34101;53.430;-2.224;2023-04-03T00:30:59;6;4;
46681;PMS5003;34101;53.430;-2.224;2023-04-03T00:33:27;5;5;
46681;PMS5003;34101;53.430;-2.224;2023-04-03T00:35:54;3;3;
46681;PMS5003;34101;53.430;-2.224;2023-04-03T00:38:21;6;5;
46681;PMS5003;34101;53.430;-2.224;2023-04-03T00:40:49;4;4;
46681;PMS5003;34101;53.430;-2.224;2023-04-03T00:43:18;4;4;
46681;PMS5003;34101;53.430;-2.224;2023-04-03T00:45:48;7;4;
46681;PMS5003;34101;53.430;-2.224;2023-04-03T00:48:18;6;5;
46681;PMS5003;34101;53.430;-2.224;2023-04-03T00:50:48;6;5;
46681;PMS5003;34101;53.430;-2.224;2023-04-03T00:53:18;3;3;
46681;PMS5003;34101;53.430;-2.224;2023-04-03T00:55:49;4;4;
46681;PMS5003;34101;53.430;-2.224;2023-04-03T00:58:20;4;4;
46681;PMS5003;34101;53.430;-2.224;2023-04-03T01:00:54;4;4;
46681;PMS5003;34101;53.430;-2.224;2023-04-03T01:03:24;7;5;
46681;PMS5003;34101;53.430;-2.224;2023-04-03T01:05:52;4;4;
46681;PMS5003;34101;53.430;-2.224;2023-04-03T01:08:19;5;5;
46681;PMS5003;34101;53.430;-2.224;2023-04-03T01:10:47;5;5;
46681;PMS5003;34101;53.430;-2.224;2023-04-03T01:13:23;4;4;
46681;PMS5003;34101;53.430;-2.224;2023-04-03T01:15:52;5;5;
46681;PMS5003;34101;53.430;-2.224;2023-04-03T01:18:20;5;5;
46681;PMS5003;34101;53.430;-2.224;2023-04-03T01:21:08;9;6;
46681;PMS5003;34101;53.430;-2.224;2023-04-03T01:23:52;4;4;
46681;PMS5003;34101;53.430;-2.224;2023-04-03T01:26:31;7;5;
46681;PMS5003;34101;53.430;-2.224;2023-04-03T01:28:59;9;6;
46681;PMS5003;34101;53.430;-2.224;2023-04-03T01:31:28;6;5;
46681;PMS5003;34101;53.430;-2.224;2023-04-03T01:34:05;5;5;
46681;PMS5003;34101;53.430;-2.224;2023-04-03T01:36:34;5;4;
46681;PMS5003;34101;53.430;-2.224;2023-04-03T01:39:01;5;5;
46681;PMS5003;34101;53.430;-2.224;2023-04-03T01:41:29;4;4;
46681;PMS5003;34101;53.430;-2.224;2023-04-03T01:43:56;4;4;
46681;PMS5003;34101;53.430;-2.224;2023-04-03T01:46:24;5;4;
46681;PMS5003;34101;53.430;-2.224;2023-04-03T01:48:52;4;4;
46681;PMS5003;34101;53.430;-2.224;2023-04-03T01:51:21;7;7;
46681;PMS5003;34101;53.430;-2.224;2023-04-03T01:53:53;5;5;
46681;PMS5003;34101;53.430;-2.224;2023-04-03T01:56:20;4;4;
46681;PMS5003;34101;53.430;-2.224;2023-04-03T01:58:47;5;5;
46681;PMS5003;34101;53.430;-2.224;2023-04-03T02:01:15;5;5;
46681;PMS5003;34101;53.430;-2.224;2023-04-03T02:03:42;5;5;
46681;PMS5003;34101;53.430;-2.224;2023-04-03T02:06:10;5;5;
46681;PMS5003;34101;53.430;-2.224;2023-04-03T02:08:38;6;6;
46681;PMS5003;34101;53.430;-2.224;2023-04-03T02:11:05;5;5;
46681;PMS5003;34101;53.430;-2.224;2023-04-03T02:13:33;4;4;
46681;PMS5003;34101;53.430;-2.224;2023-04-03T02:16:06;4;4;
46681;PMS5003;34101;53.430;-2.224;2023-04-03T02:18:35;4;4;
46681;PMS5003;34101;53.430;-2.224;2023-04-03T02:21:02;6;5;
46681;PMS5003;34101;53.430;-2.224;2023-04-03T02:23:30;5;5;
46681;PMS5003;34101;53.430;-2.224;2023-04-03T02:26:05;5;5;
46681;PMS5003;34101;53.430;-2.224;2023-04-03T02:28:34;4;4;
46681;PMS5003;34101;53.430;-2.224;2023-04-03T02:31:02;4;4;
46681;PMS5003;34101;53.430;-2.224;2023-04-03T02:33:31;4;4;
46681;PMS5003;34101;53.430;-2.224;2023-04-03T02:35:58;3;3;
46681;PMS5003;34101;53.430;-2.224;2023-04-03T02:38:26;4;3;
46681;PMS5003;34101;53.430;-2.224;2023-04-03T02:40:57;4;4;
46681;PMS5003;34101;53.430;-2.224;2023-04-03T02:43:26;4;4;
46681;PMS5003;34101;53.430;-2.224;2023-04-03T02:45:54;5;5;
46681;PMS5003;34101;53.430;-2.224;2023-04-03T02:48:21;6;6;
46681;PMS5003;34101;53.430;-2.224;2023-04-03T02:50:48;7;5;
46681;PMS5003;34101;53.430;-2.224;2023-04-03T02:53:16;5;5;
46681;PMS5003;34101;53.430;-2.224;2023-04-03T02:55:44;4;4;
46681;PMS5003;34101;53.430;-2.224;2023-04-03T02:58:12;3;3;
46681;PMS5003;34101;53.430;-2.224;2023-04-03T03:00:40;4;4;
46681;PMS5003;34101;53.430;-2.224;2023-04-03T03:03:07;7;6;
46681;PMS5003;34101;53.430;-2.224;2023-04-03T03:05:35;4;4;
46681;PMS5003;34101;53.430;-2.224;2023-04-03T03:08:03;4;4;
46681;PMS5003;34101;53.430;-2.224;2023-04-03T03:10:30;5;5;
46681;PMS5003;34101;53.430;-2.224;2023-04-03T03:12:57;3;3;
46681;PMS5003;34101;53.430;-2.224;2023-04-03T03:15:30;5;5;
46681;PMS5003;34101;53.430;-2.224;2023-04-03T03:17:56;6;5;
46681;PMS5003;34101;53.430;-2.224;2023-04-03T03:20:24;4;4;
46681;PMS5003;34101;53.430;-2.224;2023-04-03T03:22:51;4;3;
46681;PMS5003;34101;53.430;-2.224;2023-04-03T03:25:19;5;5;
46681;PMS5003;34101;53.430;-2.224;2023-04-03T03:27:46;4;4;
46681;PMS5003;34101;53.430;-2.224;2023-04-03T03:30:14;4;4;
46681;PMS5003;34101;53.430;-2.224;2023-04-03T03:32:42;4;3;
46681;PMS5003;34101;53.430;-2.224;2023-04-03T03:35:09;4;4;
46681;PMS5003;34101;53.430;-2.224;2023-04-03T03:37:36;7;5;
46681;PMS5003;34101;53.430;-2.224;2023-04-03T03:40:04;4;4;
46681;PMS5003;34101;53.430;-2.224;2023-04-03T03:42:32;5;5;
46681;PMS5003;34101;53.430;-2.224;2023-04-03T03:45:00;3;3;
46681;PMS5003;34101;53.430;-2.224;2023-04-03T03:47:27;4;4;
46681;PMS5003;34101;53.430;-2.224;2023-04-03T03:49:55;5;5;
46681;PMS5003;34101;53.430;-2.224;2023-04-03T03:52:22;4;4;
46681;PMS5003;34101;53.430;-2.224;2023-04-03T03:54:50;6;5;
46681;PMS5003;34101;53.430;-2.224;2023-04-03T03:57:17;6;5;
46681;PMS5003;34101;53.430;-2.224;2023-04-03T03:59:45;3;3;
46681;PMS5003;34101;53.430;-2.224;2023-04-03T04:02:13;6;6;
46681;PMS5003;34101;53.430;-2.224;2023-04-03T04:04:41;4;4;
46681;PMS5003;34101;53.430;-2.224;2023-04-03T04:07:08;5;4;
46681;PMS5003;34101;53.430;-2.224;2023-04-03T04:09:35;6;5;
46681;PMS5003;34101;53.430;-2.224;2023-04-03T04:12:02;4;4;
46681;PMS5003;34101;53.430;-2.224;2023-04-03T04:14:30;5;4;
46681;PMS5003;34101;53.430;-2.224;2023-04-03T04:16:57;5;5;
46681;PMS5003;34101;53.430;-2.224;2023-04-03T04:19:25;4;4;
46681;PMS5003;34101;53.430;-2.224;2023-04-03T04:21:52;8;6;
46681;PMS5003;34101;53.430;-2.224;2023-04-03T04:24:20;4;4;
46681;PMS5003;34101;53.430;-2.224;2023-04-03T04:26:47;4;4;
46681;PMS5003;34101;53.430;-2.224;2023-04-03T04:29:15;4;4;
46681;PMS5003;34101;53.430;-2.224;2023-04-03T04:31:47;5;5;
46681;PMS5003;34101;53.430;-2.224;2023-04-03T04:34:14;4;4;
46681;PMS5003;34101;53.430;-2.224;2023-04-03T04:36:41;4;2;
46681;PMS5003;34101;53.430;-2.224;2023-04-03T04:39:09;4;4;
46681;PMS5003;34101;53.430;-2.224;2023-04-03T04:41:36;4;4;
46681;PMS5003;34101;53.430;-2.224;2023-04-03T04:44:04;3;3;
46681;PMS5003;34101;53.430;-2.224;2023-04-03T04:46:32;5;3;
46681;PMS5003;34101;53.430;-2.224;2023-04-03T04:48:59;5;3;
46681;PMS5003;34101;53.430;-2.224;2023-04-03T04:51:27;4;4;
46681;PMS5003;34101;53.430;-2.224;2023-04-03T04:53:54;4;4;
46681;PMS5003;34101;53.430;-2.224;2023-04-03T04:56:21;6;6;
46681;PMS5003;34101;53.430;-2.224;2023-04-03T04:58:49;3;3;
46681;PMS5003;34101;53.430;-2.224;2023-04-03T05:01:17;5;3;
46681;PMS5003;34101;53.430;-2.224;2023-04-03T05:03:44;6;5;
46681;PMS5003;34101;53.430;-2.224;2023-04-03T05:06:11;4;4;
46681;PMS5003;34101;53.430;-2.224;2023-04-03T05:08:39;3;3;
46681;PMS5003;34101;53.430;-2.224;2023-04-03T05:11:06;5;4;
46681;PMS5003;34101;53.430;-2.224;2023-04-03T05:13:34;6;4;
46681;PMS5003;34101;53.430;-2.224;2023-04-03T05:16:01;6;5;
46681;PMS5003;34101;53.430;-2.224;2023-04-03T05:18:29;4;4;
46681;PMS5003;34101;53.430;-2.224;2023-04-03T05:20:56;6;4;
46681;PMS5003;34101;53.430;-2.224;2023-04-03T05:23:24;9;9;
46681;PMS5003;34101;53.430;-2.224;2023-04-03T05:25:51;6;6;
46681;PMS5003;34101;53.430;-2.224;2023-04-03T05:28:19;6;6;
46681;PMS5003;34101;53.430;-2.224;2023-04-03T05:30:53;6;6;
46681;PMS5003;34101;53.430;-2.224;2023-04-03T05:33:21;5;5;
46681;PMS5003;34101;53.430;-2.224;2023-04-03T05:35:48;9;9;
46681;PMS5003;34101;53.430;-2.224;2023-04-03T05:38:16;10;8;
46681;PMS5003;34101;53.430;-2.224;2023-04-03T05:40:43;10;8;
46681;PMS5003;34101;53.430;-2.224;2023-04-03T05:43:11;10;10;
46681;PMS5003;34101;53.430;-2.224;2023-04-03T05:45:38;10;10;
46681;PMS5003;34101;53.430;-2.224;2023-04-03T05:48:06;11;11;
46681;PMS5003;34101;53.430;-2.224;2023-04-03T05:50:33;11;10;
46681;PMS5003;34101;53.430;-2.224;2023-04-03T05:53:01;9;9;
46681;PMS5003;34101;53.430;-2.224;2023-04-03T05:55:30;15;11;
46681;PMS5003;34101;53.430;-2.224;2023-04-03T05:57:57;11;10;
46681;PMS5003;34101;53.430;-2.224;2023-04-03T06:00:25;11;10;
46681;PMS5003;34101;53.430;-2.224;2023-04-03T06:02:52;13;10;
46681;PMS5003;34101;53.430;-2.224;2023-04-03T06:05:20;9;6;
46681;PMS5003;34101;53.430;-2.224;2023-04-03T06:07:47;10;9;
46681;PMS5003;34101;53.430;-2.224;2023-04-03T06:10:15;8;8;
46681;PMS5003;34101;53.430;-2.224;2023-04-03T06:12:42;6;6;
46681;PMS5003;34101;53.430;-2.224;2023-04-03T06:15:10;10;10;
46681;PMS5003;34101;53.430;-2.224;2023-04-03T06:17:37;8;6;
46681;PMS5003;34101;53.430;-2.224;2023-04-03T06:20:05;10;8;
46681;PMS5003;34101;53.430;-2.224;2023-04-03T06:22:33;10;8;
46681;PMS5003;34101;53.430;-2.224;2023-04-03T06:25:01;10;9;
46681;PMS5003;34101;53.430;-2.224;2023-04-03T06:27:34;9;8;
46681;PMS5003;34101;53.430;-2.224;2023-04-03T06:30:02;12;9;
46681;PMS5003;34101;53.430;-2.224;2023-04-03T06:32:30;11;11;
46681;PMS5003;34101;53.430;-2.224;2023-04-03T06:34:57;9;9;
46681;PMS5003;34101;53.430;-2.224;2023-04-03T06:37:25;9;9;
46681;PMS5003;34101;53.430;-2.224;2023-04-03T06:39:52;6;6;
46681;PMS5003;34101;53.430;-2.224;2023-04-03T06:42:20;5;5;
46681;PMS5003;34101;53.430;-2.224;2023-04-03T06:44:47;6;5;
46681;PMS5003;34101;53.430;-2.224;2023-04-03T06:47:16;8;5;
46681;PMS5003;34101;53.430;-2.224;2023-04-03T06:49:44;6;5;
46681;PMS5003;34101;53.430;-2.224;2023-04-03T06:52:11;8;5;
46681;PMS5003;34101;53.430;-2.224;2023-04-03T06:54:38;5;5;
46681;PMS5003;34101;53.430;-2.224;2023-04-03T06:57:07;6;5;
46681;PMS5003;34101;53.430;-2.224;2023-04-03T06:59:35;3;3;
46681;PMS5003;34101;53.430;-2.224;2023-04-03T07:02:02;5;5;
46681;PMS5003;34101;53.430;-2.224;2023-04-03T07:04:35;4;4;
46681;PMS5003;34101;53.430;-2.224;2023-04-03T07:07:03;5;3;
46681;PMS5003;34101;53.430;-2.224;2023-04-03T07:09:30;2;2;
46681;PMS5003;34101;53.430;-2.224;2023-04-03T07:11:58;2;2;
46681;PMS5003;34101;53.430;-2.224;2023-04-03T07:14:25;2;2;
46681;PMS5003;34101;53.430;-2.224;2023-04-03T07:16:53;2;2;
46681;PMS5003;34101;53.430;-2.224;2023-04-03T07:19:20;3;3;
46681;PMS5003;34101;53.430;-2.224;2023-04-03T07:21:53;3;3;
46681;PMS5003;34101;53.430;-2.224;2023-04-03T07:24:20;3;3;
46681;PMS5003;34101;53.430;-2.224;2023-04-03T07:26:49;4;4;
46681;PMS5003;34101;53.430;-2.224;2023-04-03T07:29:16;3;3;
46681;PMS5003;34101;53.430;-2.224;2023-04-03T07:31:43;5;4;
46681;PMS5003;34101;53.430;-2.224;2023-04-03T07:34:11;3;3;
46681;PMS5003;34101;53.430;-2.224;2023-04-03T07:36:38;3;3;
46681;PMS5003;34101;53.430;-2.224;2023-04-03T07:39:06;3;3;
46681;PMS5003;34101;53.430;-2.224;2023-04-03T07:41:34;4;3;
46681;PMS5003;34101;53.430;-2.224;2023-04-03T07:44:02;5;2;
46681;PMS5003;34101;53.430;-2.224;2023-04-03T07:46:29;4;3;
46681;PMS5003;34101;53.430;-2.224;2023-04-03T07:48:57;3;3;
46681;PMS5003;34101;53.430;-2.224;2023-04-03T07:51:24;3;3;
46681;PMS5003;34101;53.430;-2.224;2023-04-03T07:53:52;4;2;
46681;PMS5003;34101;53.430;-2.224;2023-04-03T07:56:19;3;3;
46681;PMS5003;34101;53.430;-2.224;2023-04-03T07:58:47;2;2;
46681;PMS5003;34101;53.430;-2.224;2023-04-03T08:01:14;2;2;
46681;PMS5003;34101;53.430;-2.224;2023-04-03T08:03:42;2;2;
46681;PMS5003;34101;53.430;-2.224;2023-04-03T08:06:09;3;3;
46681;PMS5003;34101;53.430;-2.224;2023-04-03T08:08:37;4;2;
46681;PMS5003;34101;53.430;-2.224;2023-04-03T08:11:04;1;1;
46681;PMS5003;34101;53.430;-2.224;2023-04-03T08:13:32;7;2;
46681;PMS5003;34101;53.430;-2.224;2023-04-03T08:17:07;5;2;
46681;PMS5003;34101;53.430;-2.224;2023-04-03T08:19:45;3;3;
46681;PMS5003;34101;53.430;-2.224;2023-04-03T08:22:12;5;2;
46681;PMS5003;34101;53.430;-2.224;2023-04-03T08:24:40;2;2;
46681;PMS5003;34101;53.430;-2.224;2023-04-03T08:27:07;3;3;
46681;PMS5003;34101;53.430;-2.224;2023-04-03T08:29:35;4;4;
46681;PMS5003;34101;53.430;-2.224;2023-04-03T08:32:02;3;2;
46681;PMS5003;34101;53.430;-2.224;2023-04-03T08:34:30;4;3;
46681;PMS5003;34101;53.430;-2.224;2023-04-03T08:36:58;3;2;
46681;PMS5003;34101;53.430;-2.224;2023-04-03T08:39:26;3;2;
46681;PMS5003;34101;53.430;-2.224;2023-04-03T08:42:02;4;4;
46681;PMS5003;34101;53.430;-2.224;2023-04-03T08:44:43;3;3;
46681;PMS5003;34101;53.430;-2.224;2023-04-03T08:47:19;3;3;
46681;PMS5003;34101;53.430;-2.224;2023-04-03T08:50:00;5;5;
46681;PMS5003;34101;53.430;-2.224;2023-04-03T08:52:39;4;3;
46681;PMS5003;34101;53.430;-2.224;2023-04-03T08:55:22;4;3;
46681;PMS5003;34101;53.430;-2.224;2023-04-03T08:57:54;1;1;
46681;PMS5003;34101;53.430;-2.224;2023-04-03T09:00:34;2;2;
46681;PMS5003;34101;53.430;-2.224;2023-04-03T09:03:11;2;2;
46681;PMS5003;34101;53.430;-2.224;2023-04-03T09:05:41;2;1;
46681;PMS5003;34101;53.430;-2.224;2023-04-03T09:08:16;3;1;
46681;PMS5003;34101;53.430;-2.224;2023-04-03T09:10:49;3;3;
46681;PMS5003;34101;53.430;-2.224;2023-04-03T09:13:21;3;1;
46681;PMS5003;34101;53.430;-2.224;2023-04-03T09:15:55;6;2;
46681;PMS5003;34101;53.430;-2.224;2023-04-03T09:18:23;2;2;
46681;PMS5003;34101;53.430;-2.224;2023-04-03T09:20:57;3;1;
46681;PMS5003;34101;53.430;-2.224;2023-04-03T09:23:32;2;0;
46681;PMS5003;34101;53.430;-2.224;2023-04-03T09:26:04;2;2;
46681;PMS5003;34101;53.430;-2.224;2023-04-03T09:28:37;2;2;
46681;PMS5003;34101;53.430;-2.224;2023-04-03T09:31:10;1;1;
46681;PMS5003;34101;53.430;-2.224;2023-04-03T09:33:44;3;3;
46681;PMS5003;34101;53.430;-2.224;2023-04-03T09:36:11;3;2;
46681;PMS5003;34101;53.430;-2.224;2023-04-03T09:38:38;4;3;
46681;PMS5003;34101;53.430;-2.224;2023-04-03T09:41:07;3;2;
46681;PMS5003;34101;53.430;-2.224;2023-04-03T09:43:41;4;2;
46681;PMS5003;34101;53.430;-2.224;2023-04-03T09:46:25;3;3;
46681;PMS5003;34101;53.430;-2.224;2023-04-03T09:48:56;2;2;
46681;PMS5003;34101;53.430;-2.224;2023-04-03T09:51:25;3;2;
46681;PMS5003;34101;53.430;-2.224;2023-04-03T09:53:54;3;2;
46681;PMS5003;34101;53.430;-2.224;2023-04-03T09:56:23;0;0;
46681;PMS5003;34101;53.430;-2.224;2023-04-03T09:58:52;2;2;
46681;PMS5003;34101;53.430;-2.224;2023-04-03T10:01:39;2;2;
46681;PMS5003;34101;53.430;-2.224;2023-04-03T10:04:10;2;2;
46681;PMS5003;34101;53.430;-2.224;2023-04-03T10:06:39;1;1;
46681;PMS5003;34101;53.430;-2.224;2023-04-03T10:09:14;5;3;
46681;PMS5003;34101;53.430;-2.224;2023-04-03T10:12:02;5;3;
46681;PMS5003;34101;53.430;-2.224;2023-04-03T10:14:30;4;3;
46681;PMS5003;34101;53.430;-2.224;2023-04-03T10:17:00;3;3;
46681;PMS5003;34101;53.430;-2.224;2023-04-03T10:19:36;5;4;
46681;PMS5003;34101;53.430;-2.224;2023-04-03T10:22:13;3;3;
46681;PMS5003;34101;53.430;-2.224;2023-04-03T10:24:52;4;4;
46681;PMS5003;34101;53.430;-2.224;2023-04-03T10:27:32;5;5;
46681;PMS5003;34101;53.430;-2.224;2023-04-03T10:30:11;4;3;
46681;PMS5003;34101;53.430;-2.224;2023-04-03T10:32:51;3;2;
46681;PMS5003;34101;53.430;-2.224;2023-04-03T10:35:28;3;3;
46681;PMS5003;34101;53.430;-2.224;2023-04-03T10:38:09;3;3;
46681;PMS5003;34101;53.430;-2.224;2023-04-03T10:40:47;6;4;
46681;PMS5003;34101;53.430;-2.224;2023-04-03T10:43:25;2;2;
46681;PMS5003;34101;53.430;-2.224;2023-04-03T10:46:01;4;3;
46681;PMS5003;34101;53.430;-2.224;2023-04-03T10:48:37;5;3;
46681;PMS5003;34101;53.430;-2.224;2023-04-03T10:51:16;3;3;
46681;PMS5003;34101;53.430;-2.224;2023-04-03T10:53:52;4;2;
46681;PMS5003;34101;53.430;-2.224;2023-04-03T10:56:27;2;2;
46681;PMS5003;34101;53.430;-2.224;2023-04-03T10:59:06;3;3;
46681;PMS5003;34101;53.430;-2.224;2023-04-03T11:01:44;2;2;
46681;PMS5003;34101;53.430;-2.224;2023-04-03T11:04:14;5;4;
46681;PMS5003;34101;53.430;-2.224;2023-04-03T11:06:45;5;5;
46681;PMS5003;34101;53.430;-2.224;2023-04-03T11:09:19;3;3;
46681;PMS5003;34101;53.430;-2.224;2023-04-03T11:11:55;5;5;
46681;PMS5003;34101;53.430;-2.224;2023-04-03T11:14:28;5;2;
46681;PMS5003;34101;53.430;-2.224;2023-04-03T11:17:05;6;5;
46681;PMS5003;34101;53.430;-2.224;2023-04-03T11:19:42;4;4;
46681;PMS5003;34101;53.430;-2.224;2023-04-03T11:22:17;4;2;
46681;PMS5003;34101;53.430;-2.224;2023-04-03T11:24:53;4;4;
46681;PMS5003;34101;53.430;-2.224;2023-04-03T11:27:26;5;5;
46681;PMS5003;34101;53.430;-2.224;2023-04-03T11:29:59;4;4;
46681;PMS5003;34101;53.430;-2.224;2023-04-03T11:32:32;4;4;
46681;PMS5003;34101;53.430;-2.224;2023-04-03T11:35:17;4;4;
46681;PMS5003;34101;53.430;-2.224;2023-04-03T11:37:47;2;2;
46681;PMS5003;34101;53.430;-2.224;2023-04-03T11:40:23;4;4;
46681;PMS5003;34101;53.430;-2.224;2023-04-03T11:42:54;3;3;
46681;PMS5003;34101;53.430;-2.224;2023-04-03T11:45:32;4;4;
46681;PMS5003;34101;53.430;-2.224;2023-04-03T11:48:05;5;4;
46681;PMS5003;34101;53.430;-2.224;2023-04-03T11:51:37;7;3;
46681;PMS5003;34101;53.430;-2.224;2023-04-03T11:55:41;3;3;
46681;PMS5003;34101;53.430;-2.224;2023-04-03T11:58:13;3;3;
46681;PMS5003;34101;53.430;-2.224;2023-04-03T12:01:42;7;4;
46681;PMS5003;34101;53.430;-2.224;2023-04-03T12:04:11;3;3;
46681;PMS5003;34101;53.430;-2.224;2023-04-03T12:07:52;4;2;
46681;PMS5003;34101;53.430;-2.224;2023-04-03T12:11:13;3;2;
46681;PMS5003;34101;53.430;-2.224;2023-04-03T12:14:02;6;4;
46681;PMS5003;34101;53.430;-2.224;2023-04-03T12:16:32;4;2;
46681;PMS5003;34101;53.430;-2.224;2023-04-03T12:19:27;3;3;
46681;PMS5003;34101;53.430;-2.224;2023-04-03T12:22:07;3;3;
46681;PMS5003;34101;53.430;-2.224;2023-04-03T12:24:44;4;3;
46681;PMS5003;34101;53.430;-2.224;2023-04-03T12:27:16;3;3;
46681;PMS5003;34101;53.430;-2.224;2023-04-03T12:29:51;1;1;
46681;PMS5003;34101;53.430;-2.224;2023-04-03T12:32:26;3;3;
46681;PMS5003;34101;53.430;-2.224;2023-04-03T12:35:10;3;3;
46681;PMS5003;34101;53.430;-2.224;2023-04-03T12:37:54;5;4;
46681;PMS5003;34101;53.430;-2.224;2023-04-03T12:40:42;4;3;
46681;PMS5003;34101;53.430;-2.224;2023-04-03T12:43:20;6;3;
46681;PMS5003;34101;53.430;-2.224;2023-04-03T12:45:59;3;3;
46681;PMS5003;34101;53.430;-2.224;2023-04-03T12:48:30;4;4;
46681;PMS5003;34101;53.430;-2.224;2023-04-03T12:50:58;4;4;
46681;PMS5003;34101;53.430;-2.224;2023-04-03T12:53:27;5;5;
46681;PMS5003;34101;53.430;-2.224;2023-04-03T12:55:58;3;3;
46681;PMS5003;34101;53.430;-2.224;2023-04-03T12:58:47;5;4;
46681;PMS5003;34101;53.430;-2.224;2023-04-03T13:01:16;5;4;
46681;PMS5003;34101;53.430;-2.224;2023-04-03T13:03:48;2;2;
46681;PMS5003;34101;53.430;-2.224;2023-04-03T13:06:19;5;2;
46681;PMS5003;34101;53.430;-2.224;2023-04-03T13:08:50;3;3;
46681;PMS5003;34101;53.430;-2.224;2023-04-03T13:11:20;5;4;
46681;PMS5003;34101;53.430;-2.224;2023-04-03T13:13:56;4;4;
46681;PMS5003;34101;53.430;-2.224;2023-04-03T13:16:25;4;3;
46681;PMS5003;34101;53.430;-2.224;2023-04-03T13:18:53;5;4;
46681;PMS5003;34101;53.430;-2.224;2023-04-03T13:21:22;5;4;
46681;PMS5003;34101;53.430;-2.224;2023-04-03T13:23:53;6;3;
46681;PMS5003;34101;53.430;-2.224;2023-04-03T13:26:25;4;3;
46681;PMS5003;34101;53.430;-2.224;2023-04-03T13:28:59;7;4;
46681;PMS5003;34101;53.430;-2.224;2023-04-03T13:31:30;5;4;
46681;PMS5003;34101;53.430;-2.224;2023-04-03T13:34:02;4;4;
46681;PMS5003;34101;53.430;-2.224;2023-04-03T13:36:33;5;5;
46681;PMS5003;34101;53.430;-2.224;2023-04-03T13:39:03;5;5;
46681;PMS5003;34101;53.430;-2.224;2023-04-03T13:41:34;4;4;
46681;PMS5003;34101;53.430;-2.224;2023-04-03T13:44:26;4;4;
46681;PMS5003;34101;53.430;-2.224;2023-04-03T13:46:57;5;5;
46681;PMS5003;34101;53.430;-2.224;2023-04-03T13:49:34;5;4;
46681;PMS5003;34101;53.430;-2.224;2023-04-03T13:52:22;5;5;
46681;PMS5003;34101;53.430;-2.224;2023-04-03T13:54:54;5;5;
46681;PMS5003;34101;53.430;-2.224;2023-04-03T13:57:24;4;4;
46681;PMS5003;34101;53.430;-2.224;2023-04-03T13:59:53;4;4;
46681;PMS5003;34101;53.430;-2.224;2023-04-03T14:02:22;5;5;
46681;PMS5003;34101;53.430;-2.224;2023-04-03T14:04:57;4;4;
46681;PMS5003;34101;53.430;-2.224;2023-04-03T14:07:26;6;4;
46681;PMS5003;34101;53.430;-2.224;2023-04-03T14:09:55;7;6;
46681;PMS5003;34101;53.430;-2.224;2023-04-03T14:12:25;7;5;
46681;PMS5003;34101;53.430;-2.224;2023-04-03T14:14:55;5;5;
46681;PMS5003;34101;53.430;-2.224;2023-04-03T14:17:28;6;5;
46681;PMS5003;34101;53.430;-2.224;2023-04-03T14:19:55;7;5;
46681;PMS5003;34101;53.430;-2.224;2023-04-03T14:22:25;4;4;
46681;PMS5003;34101;53.430;-2.224;2023-04-03T14:24:54;9;6;
46681;PMS5003;34101;53.430;-2.224;2023-04-03T14:27:22;6;5;
46681;PMS5003;34101;53.430;-2.224;2023-04-03T14:29:52;5;5;
46681;PMS5003;34101;53.430;-2.224;2023-04-03T14:32:22;4;4;
46681;PMS5003;34101;53.430;-2.224;2023-04-03T14:34:51;7;7;
46681;PMS5003;34101;53.430;-2.224;2023-04-03T14:37:20;8;7;
46681;PMS5003;34101;53.430;-2.224;2023-04-03T14:39:49;7;7;
46681;PMS5003;34101;53.430;-2.224;2023-04-03T14:42:18;6;4;
46681;PMS5003;34101;53.430;-2.224;2023-04-03T14:44:53;6;6;
46681;PMS5003;34101;53.430;-2.224;2023-04-03T14:47:21;6;6;
46681;PMS5003;34101;53.430;-2.224;2023-04-03T14:49:52;5;5;
46681;PMS5003;34101;53.430;-2.224;2023-04-03T14:52:20;5;5;
46681;PMS5003;34101;53.430;-2.224;2023-04-03T14:54:49;7;6;
46681;PMS5003;34101;53.430;-2.224;2023-04-03T14:57:17;5;5;
46681;PMS5003;34101;53.430;-2.224;2023-04-03T14:59:45;5;5;
46681;PMS5003;34101;53.430;-2.224;2023-04-03T15:02:22;5;4;
46681;PMS5003;34101;53.430;-2.224;2023-04-03T15:04:53;8;6;
46681;PMS5003;34101;53.430;-2.224;2023-04-03T15:07:20;7;4;
46681;PMS5003;34101;53.430;-2.224;2023-04-03T15:09:48;9;5;
46681;PMS5003;34101;53.430;-2.224;2023-04-03T15:12:16;5;5;
46681;PMS5003;34101;53.430;-2.224;2023-04-03T15:14:44;6;5;
46681;PMS5003;34101;53.430;-2.224;2023-04-03T15:17:13;4;4;
46681;PMS5003;34101;53.430;-2.224;2023-04-03T15:19:43;6;5;
46681;PMS5003;34101;53.430;-2.224;2023-04-03T15:22:12;5;5;
46681;PMS5003;34101;53.430;-2.224;2023-04-03T15:24:41;5;5;
46681;PMS5003;34101;53.430;-2.224;2023-04-03T15:27:08;6;5;
46681;PMS5003;34101;53.430;-2.224;2023-04-03T15:29:36;3;3;
46681;PMS5003;34101;53.430;-2.224;2023-04-03T15:32:03;3;3;
46681;PMS5003;34101;53.430;-2.224;2023-04-03T15:34:31;7;6;
46681;PMS5003;34101;53.430;-2.224;2023-04-03T15:36:58;7;6;
46681;PMS5003;34101;53.430;-2.224;2023-04-03T15:39:26;4;4;
46681;PMS5003;34101;53.430;-2.224;2023-04-03T15:41:53;7;6;
46681;PMS5003;34101;53.430;-2.224;2023-04-03T15:44:21;10;8;
46681;PMS5003;34101;53.430;-2.224;2023-04-03T15:46:49;6;5;
46681;PMS5003;34101;53.430;-2.224;2023-04-03T15:49:17;5;5;
46681;PMS5003;34101;53.430;-2.224;2023-04-03T15:51:45;7;7;
46681;PMS5003;34101;53.430;-2.224;2023-04-03T15:54:12;7;6;
46681;PMS5003;34101;53.430;-2.224;2023-04-03T15:56:39;6;6;
46681;PMS5003;34101;53.430;-2.224;2023-04-03T15:59:07;7;6;
46681;PMS5003;34101;53.430;-2.224;2023-04-03T16:01:35;4;4;
46681;PMS5003;34101;53.430;-2.224;2023-04-03T16:04:03;7;7;
46681;PMS5003;34101;53.430;-2.224;2023-04-03T16:06:31;5;5;
46681;PMS5003;34101;53.430;-2.224;2023-04-03T16:08:59;4;4;
46681;PMS5003;34101;53.430;-2.224;2023-04-03T16:11:27;7;4;
46681;PMS5003;34101;53.430;-2.224;2023-04-03T16:13:54;6;5;
46681;PMS5003;34101;53.430;-2.224;2023-04-03T16:16:23;7;6;
46681;PMS5003;34101;53.430;-2.224;2023-04-03T16:18:51;5;5;
46681;PMS5003;34101;53.430;-2.224;2023-04-03T16:21:19;5;5;
46681;PMS5003;34101;53.430;-2.224;2023-04-03T16:23:47;6;6;
46681;PMS5003;34101;53.430;-2.224;2023-04-03T16:26:14;6;6;
46681;PMS5003;34101;53.430;-2.224;2023-04-03T16:28:42;5;5;
46681;PMS5003;34101;53.430;-2.224;2023-04-03T16:31:09;8;6;
46681;PMS5003;34101;53.430;-2.224;2023-04-03T16:33:37;7;7;
46681;PMS5003;34101;53.430;-2.224;2023-04-03T16:36:05;5;5;
46681;PMS5003;34101;53.430;-2.224;2023-04-03T16:38:32;5;5;
46681;PMS5003;34101;53.430;-2.224;2023-04-03T16:40:59;5;5;
46681;PMS5003;34101;53.430;-2.224;2023-04-03T16:43:27;8;6;
46681;PMS5003;34101;53.430;-2.224;2023-04-03T16:45:59;7;6;
46681;PMS5003;34101;53.430;-2.224;2023-04-03T16:48:27;8;8;
46681;PMS5003;34101;53.430;-2.224;2023-04-03T16:50:55;8;8;
46681;PMS5003;34101;53.430;-2.224;2023-04-03T16:53:22;7;5;
46681;PMS5003;34101;53.430;-2.224;2023-04-03T16:55:50;5;5;
46681;PMS5003;34101;53.430;-2.224;2023-04-03T16:58:18;6;6;
46681;PMS5003;34101;53.430;-2.224;2023-04-03T17:00:45;8;8;